sensor_id;sensor_type;location;lat;lon;timestamp;P1;durP1;ratioP1;P2;durP2;ratioP2
2956;SDS011;1488;51.548;7.222;2023-07-31T17:52:03;1.70;;;1.60;;
2956;SDS011;1488;51.548;7.222;2023-07-31T17:54:30;1.80;;;1.70;;
2956;SDS011;1488;51.548;7.222;2023-07-31T17:56:57;2.17;;;1.97;;
2956;SDS011;1488;51.548;7.222;2023-07-31T17:59:24;2.00;;;1.80;;
2956;SDS011;1488;51.548;7.222;2023-07-31T18:01:51;2.27;;;2.07;;
2956;SDS011;1488;51.548;7.222;2023-07-31T18:04:17;2.80;;;1.60;;
2956;SDS011;1488;51.548;7.222;2023-07-31T18:06:44;3.97;;;2.13;;
2956;SDS011;1488;51.548;7.222;2023-07-31T18:09:12;2.63;;;2.43;;
2956;SDS011;1488;51.548;7.222;2023-07-31T18:11:39;2.20;;;2.00;;
2956;SDS011;1488;51.548;7.222;2023-07-31T18:14:06;1.80;;;1.70;;
2956;SDS011;1488;51.548;7.222;2023-07-31T18:16:32;2.43;;;1.93;;
2956;SDS011;1488;51.548;7.222;2023-07-31T18:18:59;2.53;;;1.90;;
2956;SDS011;1488;51.548;7.222;2023-07-31T18:21:26;2.87;;;2.40;;
2956;SDS011;1488;51.548;7.222;2023-07-31T18:23:53;2.20;;;2.00;;
2956;SDS011;1488;51.548;7.222;2023-07-31T18:26:22;2.53;;;1.73;;
2956;SDS011;1488;51.548;7.222;2023-07-31T18:28:48;2.17;;;1.77;;
2956;SDS011;1488;51.548;7.222;2023-07-31T18:31:15;2.10;;;2.00;;
2956;SDS011;1488;51.548;7.222;2023-07-31T18:33:42;1.70;;;1.50;;
2956;SDS011;1488;51.548;7.222;2023-07-31T18:36:09;2.07;;;1.83;;
2956;SDS011;1488;51.548;7.222;2023-07-31T18:38:36;1.60;;;1.50;;
2956;SDS011;1488;51.548;7.222;2023-07-31T18:41:04;2.40;;;2.10;;
2956;SDS011;1488;51.548;7.222;2023-07-31T18:43:33;2.00;;;1.83;;
2956;SDS011;1488;51.548;7.222;2023-07-31T18:46:01;5.50;;;2.37;;
2956;SDS011;1488;51.548;7.222;2023-07-31T18:48:28;2.20;;;1.57;;
2956;SDS011;1488;51.548;7.222;2023-07-31T18:50:55;2.43;;;1.57;;
2956;SDS011;1488;51.548;7.222;2023-07-31T18:53:22;2.70;;;1.97;;
2956;SDS011;1488;51.548;7.222;2023-07-31T18:55:49;2.20;;;1.77;;
2956;SDS011;1488;51.548;7.222;2023-07-31T18:58:17;2.83;;;1.50;;
2956;SDS011;1488;51.548;7.222;2023-07-31T19:00:46;1.80;;;1.70;;
2956;SDS011;1488;51.548;7.222;2023-07-31T19:03:13;2.47;;;1.97;;
2956;SDS011;1488;51.548;7.222;2023-07-31T19:05:41;3.00;;;1.90;;
2956;SDS011;1488;51.548;7.222;2023-07-31T19:08:08;1.70;;;1.60;;
2956;SDS011;1488;51.548;7.222;2023-07-31T19:10:35;1.70;;;1.60;;
2956;SDS011;1488;51.548;7.222;2023-07-31T19:13:02;2.67;;;1.57;;
2956;SDS011;1488;51.548;7.222;2023-07-31T19:15:30;1.47;;;1.37;;
2956;SDS011;1488;51.548;7.222;2023-07-31T19:17:59;2.47;;;1.43;;
2956;SDS011;1488;51.548;7.222;2023-07-31T19:20:26;1.73;;;1.63;;
2956;SDS011;1488;51.548;7.222;2023-07-31T19:22:52;2.17;;;1.97;;
2956;SDS011;1488;51.548;7.222;2023-07-31T19:25:19;1.80;;;1.43;;
2956;SDS011;1488;51.548;7.222;2023-07-31T19:27:46;1.53;;;1.43;;
2956;SDS011;1488;51.548;7.222;2023-07-31T19:30:13;2.07;;;1.50;;
2956;SDS011;1488;51.548;7.222;2023-07-31T19:32:40;1.87;;;1.43;;
2956;SDS011;1488;51.548;7.222;2023-07-31T19:35:08;1.53;;;1.43;;
2956;SDS011;1488;51.548;7.222;2023-07-31T19:37:37;1.50;;;1.40;;
2956;SDS011;1488;51.548;7.222;2023-07-31T19:40:05;1.30;;;1.20;;
2956;SDS011;1488;51.548;7.222;2023-07-31T19:42:32;1.50;;;1.40;;
2956;SDS011;1488;51.548;7.222;2023-07-31T19:45:00;3.03;;;1.37;;
2956;SDS011;1488;51.548;7.222;2023-07-31T19:47:27;1.93;;;1.37;;
2956;SDS011;1488;51.548;7.222;2023-07-31T19:49:55;1.80;;;1.70;;
2956;SDS011;1488;51.548;7.222;2023-07-31T19:52:23;2.00;;;1.80;;
2956;SDS011;1488;51.548;7.222;2023-07-31T19:54:50;1.73;;;1.43;;
2956;SDS011;1488;51.548;7.222;2023-07-31T19:57:17;2.70;;;1.20;;
2956;SDS011;1488;51.548;7.222;2023-07-31T19:59:44;1.50;;;1.40;;
2956;SDS011;1488;51.548;7.222;2023-07-31T20:02:10;2.07;;;1.40;;
2956;SDS011;1488;51.548;7.222;2023-07-31T20:04:37;1.50;;;1.23;;
2956;SDS011;1488;51.548;7.222;2023-07-31T20:07:04;2.33;;;1.53;;
2956;SDS011;1488;51.548;7.222;2023-07-31T20:09:33;6.53;;;1.43;;
2956;SDS011;1488;51.548;7.222;2023-07-31T20:12:00;5.77;;;1.47;;
2956;SDS011;1488;51.548;7.222;2023-07-31T20:14:27;2.00;;;1.83;;
2956;SDS011;1488;51.548;7.222;2023-07-31T20:16:54;1.30;;;1.10;;
2956;SDS011;1488;51.548;7.222;2023-07-31T20:19:20;1.60;;;1.40;;
2956;SDS011;1488;51.548;7.222;2023-07-31T20:21:47;1.30;;;1.10;;
2956;SDS011;1488;51.548;7.222;2023-07-31T20:24:14;6.93;;;1.63;;
2956;SDS011;1488;51.548;7.222;2023-07-31T20:26:42;1.50;;;1.40;;
2956;SDS011;1488;51.548;7.222;2023-07-31T20:29:09;1.30;;;1.17;;
2956;SDS011;1488;51.548;7.222;2023-07-31T20:31:36;1.87;;;1.40;;
2956;SDS011;1488;51.548;7.222;2023-07-31T20:34:04;1.30;;;1.03;;
2956;SDS011;1488;51.548;7.222;2023-07-31T20:36:32;3.10;;;1.30;;
2956;SDS011;1488;51.548;7.222;2023-07-31T20:39:00;1.53;;;1.13;;
2956;SDS011;1488;51.548;7.222;2023-07-31T20:41:27;1.43;;;1.33;;
2956;SDS011;1488;51.548;7.222;2023-07-31T20:43:55;1.97;;;1.50;;
2956;SDS011;1488;51.548;7.222;2023-07-31T20:46:22;1.43;;;1.10;;
2956;SDS011;1488;51.548;7.222;2023-07-31T20:48:49;1.30;;;1.20;;
2956;SDS011;1488;51.548;7.222;2023-07-31T20:51:15;2.50;;;1.20;;
2956;SDS011;1488;51.548;7.222;2023-07-31T20:53:42;1.67;;;1.00;;
2956;SDS011;1488;51.548;7.222;2023-07-31T20:56:09;1.23;;;1.10;;
2956;SDS011;1488;51.548;7.222;2023-07-31T20:58:36;1.50;;;1.00;;
2956;SDS011;1488;51.548;7.222;2023-07-31T21:01:05;1.30;;;1.10;;
2956;SDS011;1488;51.548;7.222;2023-07-31T21:03:33;1.63;;;1.20;;
2956;SDS011;1488;51.548;7.222;2023-07-31T21:05:59;1.40;;;1.10;;
2956;SDS011;1488;51.548;7.222;2023-07-31T21:08:26;1.70;;;1.07;;
2956;SDS011;1488;51.548;7.222;2023-07-31T21:10:53;1.10;;;1.00;;
2956;SDS011;1488;51.548;7.222;2023-07-31T21:13:20;1.20;;;1.00;;
2956;SDS011;1488;51.548;7.222;2023-07-31T21:15:47;1.20;;;1.10;;
2956;SDS011;1488;51.548;7.222;2023-07-31T21:18:15;1.30;;;1.20;;
2956;SDS011;1488;51.548;7.222;2023-07-31T21:20:45;3.10;;;1.07;;
2956;SDS011;1488;51.548;7.222;2023-07-31T21:23:13;1.27;;;0.97;;
2956;SDS011;1488;51.548;7.222;2023-07-31T21:25:40;2.27;;;1.20;;
2956;SDS011;1488;51.548;7.222;2023-07-31T21:28:07;1.53;;;1.13;;
2956;SDS011;1488;51.548;7.222;2023-07-31T21:30:35;1.70;;;1.00;;
2956;SDS011;1488;51.548;7.222;2023-07-31T21:33:03;1.30;;;1.10;;
2956;SDS011;1488;51.548;7.222;2023-07-31T21:35:31;1.43;;;1.10;;
2956;SDS011;1488;51.548;7.222;2023-07-31T21:37:58;1.83;;;1.03;;
2956;SDS011;1488;51.548;7.222;2023-07-31T21:40:25;1.30;;;1.00;;
2956;SDS011;1488;51.548;7.222;2023-07-31T21:42:52;1.70;;;1.00;;
2956;SDS011;1488;51.548;7.222;2023-07-31T21:45:19;1.30;;;1.10;;
2956;SDS011;1488;51.548;7.222;2023-07-31T21:47:48;1.30;;;1.10;;
2956;SDS011;1488;51.548;7.222;2023-07-31T21:50:15;1.10;;;0.97;;
2956;SDS011;1488;51.548;7.222;2023-07-31T21:52:43;1.33;;;1.23;;
2956;SDS011;1488;51.548;7.222;2023-07-31T21:55:11;1.50;;;1.20;;
2956;SDS011;1488;51.548;7.222;2023-07-31T21:57:37;1.10;;;1.00;;
2956;SDS011;1488;51.548;7.222;2023-07-31T22:00:05;1.10;;;0.90;;
2956;SDS011;1488;51.548;7.222;2023-07-31T22:02:33;1.20;;;0.97;;
2956;SDS011;1488;51.548;7.222;2023-07-31T22:05:01;1.10;;;0.90;;
2956;SDS011;1488;51.548;7.222;2023-07-31T22:07:29;1.30;;;1.10;;
2956;SDS011;1488;51.548;7.222;2023-07-31T22:09:57;1.40;;;1.20;;
2956;SDS011;1488;51.548;7.222;2023-07-31T22:12:25;1.20;;;1.00;;
2956;SDS011;1488;51.548;7.222;2023-07-31T22:14:51;1.60;;;1.33;;
2956;SDS011;1488;51.548;7.222;2023-07-31T22:17:18;1.93;;;0.90;;
2956;SDS011;1488;51.548;7.222;2023-07-31T22:19:45;2.07;;;1.40;;
2956;SDS011;1488;51.548;7.222;2023-07-31T22:22:12;1.10;;;0.90;;
2956;SDS011;1488;51.548;7.222;2023-07-31T22:24:39;1.03;;;0.90;;
2956;SDS011;1488;51.548;7.222;2023-07-31T22:27:08;1.30;;;1.10;;
2956;SDS011;1488;51.548;7.222;2023-07-31T22:29:35;1.60;;;1.20;;
2956;SDS011;1488;51.548;7.222;2023-07-31T22:32:01;1.20;;;1.03;;
2956;SDS011;1488;51.548;7.222;2023-07-31T22:34:28;1.20;;;1.00;;
2956;SDS011;1488;51.548;7.222;2023-07-31T22:36:57;1.20;;;1.00;;
2956;SDS011;1488;51.548;7.222;2023-07-31T22:39:24;3.63;;;1.17;;
2956;SDS011;1488;51.548;7.222;2023-07-31T22:41:51;1.30;;;1.10;;
2956;SDS011;1488;51.548;7.222;2023-07-31T22:44:19;1.60;;;1.40;;
2956;SDS011;1488;51.548;7.222;2023-07-31T22:46:46;1.30;;;1.20;;
2956;SDS011;1488;51.548;7.222;2023-07-31T22:49:12;1.70;;;1.10;;
2956;SDS011;1488;51.548;7.222;2023-07-31T22:51:39;1.20;;;1.00;;
2956;SDS011;1488;51.548;7.222;2023-07-31T22:54:06;1.10;;;0.90;;
2956;SDS011;1488;51.548;7.222;2023-07-31T22:56:33;1.10;;;1.00;;
2956;SDS011;1488;51.548;7.222;2023-07-31T22:58:59;1.50;;;1.20;;
2956;SDS011;1488;51.548;7.222;2023-07-31T23:01:28;1.50;;;1.10;;
2956;SDS011;1488;51.548;7.222;2023-07-31T23:03:54;1.10;;;1.00;;
2956;SDS011;1488;51.548;7.222;2023-07-31T23:06:21;1.50;;;1.17;;
2956;SDS011;1488;51.548;7.222;2023-07-31T23:08:48;1.13;;;0.97;;
2956;SDS011;1488;51.548;7.222;2023-07-31T23:11:15;1.10;;;1.00;;
2956;SDS011;1488;51.548;7.222;2023-07-31T23:13:42;1.00;;;0.80;;
2956;SDS011;1488;51.548;7.222;2023-07-31T23:16:09;1.40;;;1.20;;
2956;SDS011;1488;51.548;7.222;2023-07-31T23:18:37;1.00;;;0.80;;
2956;SDS011;1488;51.548;7.222;2023-07-31T23:21:04;1.97;;;1.10;;
2956;SDS011;1488;51.548;7.222;2023-07-31T23:23:31;1.43;;;0.97;;
2956;SDS011;1488;51.548;7.222;2023-07-31T23:25:57;1.13;;;0.93;;
2956;SDS011;1488;51.548;7.222;2023-07-31T23:28:24;1.40;;;1.13;;
2956;SDS011;1488;51.548;7.222;2023-07-31T23:30:51;2.13;;;1.17;;
2956;SDS011;1488;51.548;7.222;2023-07-31T23:33:18;1.20;;;0.80;;
2956;SDS011;1488;51.548;7.222;2023-07-31T23:35:46;1.03;;;0.70;;
2956;SDS011;1488;51.548;7.222;2023-07-31T23:38:13;1.30;;;1.13;;
2956;SDS011;1488;51.548;7.222;2023-07-31T23:40:39;1.20;;;1.00;;
2956;SDS011;1488;51.548;7.222;2023-07-31T23:43:06;1.10;;;1.00;;
2956;SDS011;1488;51.548;7.222;2023-07-31T23:45:33;1.10;;;0.90;;
2956;SDS011;1488;51.548;7.222;2023-07-31T23:48:00;1.30;;;1.00;;
2956;SDS011;1488;51.548;7.222;2023-07-31T23:50:26;1.43;;;1.20;;
2956;SDS011;1488;51.548;7.222;2023-07-31T23:52:55;1.20;;;1.10;;
2956;SDS011;1488;51.548;7.222;2023-07-31T23:55:22;1.20;;;1.00;;
2956;SDS011;1488;51.548;7.222;2023-07-31T23:57:49;1.20;;;1.10;;
